createdAt,value
2022-12-26T00:01:33.199Z,0.90
2022-12-26T00:04:50.812Z,0.90
2022-12-26T00:07:25.412Z,0.90
2022-12-26T00:10:11.021Z,0.90
2022-12-26T00:12:56.438Z,0.90
2022-12-26T00:16:11.755Z,0.90
2022-12-26T00:18:57.876Z,0.80
2022-12-26T00:21:43.666Z,0.80
2022-12-26T00:24:28.998Z,0.80
2022-12-26T00:27:14.535Z,0.70
2022-12-26T00:29:59.904Z,0.70
2022-12-26T00:32:45.603Z,0.70
2022-12-26T00:35:31.146Z,0.70
2022-12-26T00:38:16.407Z,0.70
2022-12-26T00:41:02.331Z,0.70
2022-12-26T00:43:49.241Z,0.70
2022-12-26T00:46:34.938Z,0.70
2022-12-26T00:49:20.514Z,0.70
2022-12-26T00:52:06.079Z,0.70
2022-12-26T00:54:51.504Z,0.70
2022-12-26T00:57:37.110Z,0.70
2022-12-26T01:00:23.027Z,0.70
2022-12-26T01:03:10.641Z,0.70
2022-12-26T01:05:56.291Z,0.70
2022-12-26T01:08:42.455Z,0.70
2022-12-26T01:11:28.447Z,0.70
2022-12-26T01:14:17.892Z,0.70
2022-12-26T01:17:03.281Z,0.70
2022-12-26T01:19:48.962Z,0.70
2022-12-26T01:22:34.302Z,0.70
2022-12-26T01:25:19.899Z,0.70
2022-12-26T01:28:05.344Z,0.70
2022-12-26T01:30:51.006Z,0.70
2022-12-26T01:33:36.425Z,0.80
2022-12-26T01:36:22.140Z,0.80
2022-12-26T01:39:07.839Z,0.70
2022-12-26T01:41:53.435Z,0.70
2022-12-26T01:45:25.703Z,0.70
2022-12-26T01:48:21.481Z,0.70
2022-12-26T01:51:07.536Z,0.70
2022-12-26T01:54:38.613Z,0.70
2022-12-26T01:57:17.930Z,0.70
2022-12-26T02:00:06.034Z,0.70
2022-12-26T02:02:52.375Z,0.70
2022-12-26T02:05:39.250Z,0.70
2022-12-26T02:08:31.059Z,0.80
2022-12-26T02:11:43.880Z,0.70
2022-12-26T02:14:31.622Z,0.70
2022-12-26T02:17:17.878Z,0.70
2022-12-26T02:20:29.064Z,0.70
2022-12-26T02:24:00.039Z,0.70
2022-12-26T02:27:41.616Z,0.70
2022-12-26T02:31:19.851Z,0.70
2022-12-26T02:34:46.419Z,0.70
2022-12-26T02:38:09.769Z,0.60
2022-12-26T02:41:25.346Z,0.70
2022-12-26T02:44:26.064Z,0.60
2022-12-26T02:48:02.370Z,0.70
2022-12-26T02:51:20.712Z,0.70
2022-12-26T02:55:01.203Z,0.60
2022-12-26T02:58:25.899Z,0.70
2022-12-26T03:01:34.568Z,0.70
2022-12-26T03:04:23.433Z,0.70
2022-12-26T03:07:23.264Z,0.80
2022-12-26T03:10:23.448Z,0.70
2022-12-26T03:13:23.885Z,0.80
2022-12-26T03:16:11.676Z,0.80
2022-12-26T03:19:06.182Z,0.80
2022-12-26T03:21:52.158Z,0.80
2022-12-26T03:24:37.718Z,0.80
2022-12-26T03:27:23.302Z,0.80
2022-12-26T03:30:09.962Z,0.80
2022-12-26T03:32:57.755Z,0.80
2022-12-26T03:35:43.608Z,0.80
2022-12-26T03:38:47.845Z,0.80
2022-12-26T03:42:03.040Z,0.80
2022-12-26T03:45:02.699Z,0.80
2022-12-26T03:48:10.034Z,0.80
2022-12-26T03:51:12.669Z,0.80
2022-12-26T03:54:25.652Z,0.80
2022-12-26T03:57:18.329Z,0.70
2022-12-26T04:00:14.746Z,0.70
2022-12-26T04:03:10.709Z,0.80
2022-12-26T04:06:01.397Z,0.70
2022-12-26T04:09:20.085Z,0.80
2022-12-26T04:12:19.046Z,0.70
2022-12-26T04:15:37.996Z,0.70
2022-12-26T04:18:41.899Z,0.70
2022-12-26T04:21:51.328Z,0.80
2022-12-26T04:24:58.254Z,0.70
2022-12-26T04:27:43.915Z,0.80
2022-12-26T04:30:32.220Z,0.70
2022-12-26T04:33:28.460Z,0.80
2022-12-26T04:36:26.009Z,0.80
2022-12-26T04:39:14.210Z,0.80
2022-12-26T04:42:01.131Z,0.70
2022-12-26T04:44:48.050Z,0.70
2022-12-26T04:47:34.235Z,0.80
2022-12-26T04:50:19.855Z,0.70
2022-12-26T04:53:05.544Z,0.70
2022-12-26T04:55:50.896Z,0.70
2022-12-26T04:58:36.354Z,0.70
2022-12-26T05:01:22.009Z,0.70
2022-12-26T05:04:15.534Z,0.70
2022-12-26T05:07:03.567Z,0.70
2022-12-26T05:09:53.016Z,0.70
2022-12-26T05:12:38.558Z,0.70
2022-12-26T05:15:24.432Z,0.70
2022-12-26T05:18:10.128Z,0.70
2022-12-26T05:20:55.632Z,0.70
2022-12-26T05:23:41.077Z,0.70
2022-12-26T05:26:26.575Z,0.70
2022-12-26T05:29:12.180Z,0.70
2022-12-26T05:31:57.685Z,0.70
2022-12-26T05:34:43.425Z,0.70
2022-12-26T05:37:29.088Z,0.70
2022-12-26T05:40:14.714Z,0.70
2022-12-26T05:43:00.287Z,0.60
2022-12-26T05:45:46.057Z,0.60
2022-12-26T05:48:31.860Z,0.60
2022-12-26T05:51:17.575Z,0.70
2022-12-26T05:54:04.168Z,0.60
2022-12-26T05:56:49.959Z,0.60
2022-12-26T05:59:35.355Z,0.60
2022-12-26T06:02:21.210Z,0.70
2022-12-26T06:05:07.271Z,0.60
2022-12-26T06:07:53.093Z,0.70
2022-12-26T06:10:38.833Z,0.60
2022-12-26T06:13:25.179Z,0.60
2022-12-26T06:16:16.468Z,0.60
2022-12-26T06:19:02.237Z,0.60
2022-12-26T06:21:47.826Z,0.60
2022-12-26T06:24:33.279Z,0.70
2022-12-26T06:27:18.759Z,0.70
2022-12-26T06:30:05.054Z,0.70
2022-12-26T06:32:51.492Z,0.70
2022-12-26T06:35:37.155Z,0.60
2022-12-26T06:38:22.537Z,0.60
2022-12-26T06:41:16.320Z,0.60
2022-12-26T06:44:01.882Z,0.50
2022-12-26T06:46:47.598Z,0.50
2022-12-26T06:49:33.545Z,0.60
2022-12-26T06:52:19.305Z,0.60
2022-12-26T06:55:05.628Z,0.60
2022-12-26T06:57:52.676Z,0.70
2022-12-26T07:00:38.755Z,0.70
2022-12-26T07:03:24.488Z,0.70
2022-12-26T07:06:37.993Z,0.70
2022-12-26T07:09:28.391Z,0.70
2022-12-26T07:12:17.307Z,0.70
2022-12-26T07:15:03.361Z,0.70
2022-12-26T07:17:49.019Z,0.70
2022-12-26T07:20:34.464Z,0.70
2022-12-26T07:23:19.915Z,0.70
2022-12-26T07:26:05.754Z,0.80
2022-12-26T07:28:59.780Z,0.80
2022-12-26T07:31:45.601Z,0.80
2022-12-26T07:34:32.172Z,0.80
2022-12-26T07:37:17.801Z,0.90
2022-12-26T07:40:04.225Z,0.90
2022-12-26T07:42:53.383Z,0.90
2022-12-26T07:45:43.500Z,1.00
2022-12-26T07:48:31.283Z,1.00
2022-12-26T07:51:16.665Z,1.00
2022-12-26T07:54:05.662Z,0.90
2022-12-26T07:57:14.987Z,0.90
2022-12-26T08:00:04.181Z,1.00
2022-12-26T08:02:51.602Z,1.00
2022-12-26T08:05:37.326Z,1.00
2022-12-26T08:08:23.039Z,1.00
2022-12-26T08:11:16.302Z,1.10
2022-12-26T08:14:02.698Z,1.10
2022-12-26T08:16:51.638Z,1.10
2022-12-26T08:19:39.342Z,1.20
2022-12-26T08:22:25.114Z,1.10
2022-12-26T08:25:11.316Z,1.20
2022-12-26T08:27:57.755Z,1.20
2022-12-26T08:30:44.596Z,1.20
2022-12-26T08:33:30.119Z,1.20
2022-12-26T08:36:16.600Z,1.20
2022-12-26T08:39:02.128Z,1.20
2022-12-26T08:41:48.052Z,1.30
2022-12-26T08:44:33.772Z,1.30
2022-12-26T08:47:19.320Z,1.40
2022-12-26T08:50:05.644Z,1.30
2022-12-26T08:52:51.342Z,1.40
2022-12-26T08:55:36.733Z,1.40
2022-12-26T08:58:22.657Z,1.40
2022-12-26T09:01:22.663Z,1.40
2022-12-26T09:04:08.833Z,1.50
2022-12-26T09:06:54.848Z,1.50
2022-12-26T09:09:40.494Z,1.50
2022-12-26T09:12:26.595Z,1.50
2022-12-26T09:15:11.922Z,1.60
2022-12-26T09:17:57.390Z,1.60
2022-12-26T09:20:43.064Z,1.70
2022-12-26T09:23:29.413Z,1.70
2022-12-26T09:26:19.213Z,1.60
2022-12-26T09:29:05.527Z,1.70
2022-12-26T09:31:50.963Z,1.70
2022-12-26T09:34:36.586Z,1.80
2022-12-26T09:37:22.309Z,1.90
2022-12-26T09:40:24.468Z,1.90
2022-12-26T09:43:50.592Z,1.80
2022-12-26T09:46:55.494Z,1.80
2022-12-26T09:49:54.151Z,1.80
2022-12-26T09:52:54.879Z,1.90
2022-12-26T09:55:59.195Z,1.80
2022-12-26T09:58:56.824Z,1.80
2022-12-26T10:01:42.607Z,1.80
2022-12-26T10:04:30.657Z,1.80
2022-12-26T10:07:39.295Z,1.90
2022-12-26T10:10:59.686Z,1.90
2022-12-26T10:14:24.218Z,1.90
2022-12-26T10:17:40.829Z,2.00
2022-12-26T10:21:21.566Z,2.00
2022-12-26T10:24:20.575Z,2.00
2022-12-26T10:27:18.161Z,1.90
2022-12-26T10:30:07.878Z,2.00
2022-12-26T10:33:02.749Z,2.00
2022-12-26T10:35:48.611Z,2.00
2022-12-26T10:38:45.000Z,2.00
2022-12-26T10:41:43.604Z,2.00
2022-12-26T10:44:29.063Z,2.00
2022-12-26T10:47:41.456Z,2.00
2022-12-26T10:50:36.058Z,2.00
2022-12-26T10:53:24.789Z,2.00
2022-12-26T10:56:14.827Z,2.00
2022-12-26T10:59:06.325Z,2.00
2022-12-26T11:01:52.082Z,2.00
2022-12-26T11:05:10.417Z,2.00
2022-12-26T11:08:05.466Z,2.00
2022-12-26T11:11:18.180Z,2.00
2022-12-26T11:14:09.012Z,2.10
2022-12-26T11:16:59.452Z,2.00
2022-12-26T11:19:45.360Z,2.10
2022-12-26T11:22:30.813Z,2.10
2022-12-26T11:25:24.945Z,2.10
2022-12-26T11:28:36.551Z,2.20
2022-12-26T11:31:26.370Z,2.20
2022-12-26T11:34:37.170Z,2.20
2022-12-26T11:37:31.485Z,2.20
2022-12-26T11:40:26.454Z,2.10
2022-12-26T11:43:17.970Z,2.10
2022-12-26T11:46:03.833Z,2.10
2022-12-26T11:48:54.377Z,2.10
2022-12-26T11:51:47.928Z,2.10
2022-12-26T11:54:51.240Z,2.10
2022-12-26T11:57:36.759Z,2.10
2022-12-26T12:00:23.160Z,2.00
2022-12-26T12:03:21.119Z,2.00
2022-12-26T12:07:06.829Z,2.00
2022-12-26T12:10:40.563Z,2.00
2022-12-26T12:13:50.036Z,2.00
2022-12-26T12:17:21.810Z,2.10
2022-12-26T12:20:32.644Z,2.10
2022-12-26T12:24:14.459Z,2.00
2022-12-26T12:27:30.128Z,2.10
2022-12-26T12:30:18.445Z,2.00
2022-12-26T12:33:53.909Z,2.00
2022-12-26T12:37:25.748Z,2.00
2022-12-26T12:40:57.183Z,2.00
2022-12-26T12:44:27.241Z,1.90
2022-12-26T12:47:40.242Z,1.90
2022-12-26T12:50:56.943Z,1.90
2022-12-26T12:54:40.929Z,1.90
2022-12-26T12:57:55.441Z,2.00
2022-12-26T13:01:10.759Z,1.90
2022-12-26T13:04:15.342Z,1.90
2022-12-26T13:07:45.148Z,1.90
2022-12-26T13:10:35.352Z,1.80
2022-12-26T13:13:39.137Z,1.80
2022-12-26T13:16:48.314Z,1.80
2022-12-26T13:19:41.200Z,1.80
2022-12-26T13:22:44.304Z,1.80
2022-12-26T13:25:39.360Z,1.70
2022-12-26T13:28:46.142Z,1.70
2022-12-26T13:31:40.366Z,1.70
2022-12-26T13:34:27.493Z,1.60
2022-12-26T13:37:37.949Z,1.60
2022-12-26T13:40:31.090Z,1.60
2022-12-26T13:43:28.568Z,1.50
2022-12-26T13:47:09.499Z,1.50
2022-12-26T13:49:55.240Z,1.50
2022-12-26T13:52:46.874Z,1.40
2022-12-26T13:55:45.174Z,1.40
2022-12-26T13:59:09.778Z,1.30
2022-12-26T14:03:06.988Z,1.30
2022-12-26T14:06:29.755Z,1.30
2022-12-26T14:10:07.517Z,1.30
2022-12-26T14:13:58.585Z,1.20
2022-12-26T14:17:21.044Z,1.20
2022-12-26T14:20:22.666Z,1.20
2022-12-26T14:23:46.439Z,1.10
2022-12-26T14:27:29.665Z,1.10
2022-12-26T14:30:52.639Z,1.10
2022-12-26T14:34:13.791Z,1.10
2022-12-26T14:37:55.857Z,1.00
2022-12-26T14:41:10.328Z,1.00
2022-12-26T14:43:58.256Z,1.00
2022-12-26T14:46:43.999Z,1.00
2022-12-26T14:49:35.806Z,1.00
2022-12-26T14:52:37.774Z,1.10
2022-12-26T14:56:08.759Z,1.00
2022-12-26T14:59:31.786Z,1.00
2022-12-26T15:02:17.442Z,1.00
2022-12-26T15:05:11.054Z,1.00
2022-12-26T15:09:10.488Z,1.00
2022-12-26T15:12:32.834Z,0.90
2022-12-26T15:16:04.277Z,0.90
2022-12-26T15:20:22.555Z,0.90
2022-12-26T15:23:48.185Z,0.90
2022-12-26T15:26:47.456Z,0.90
2022-12-26T15:30:21.826Z,0.90
2022-12-26T15:33:40.519Z,0.80
2022-12-26T15:37:06.388Z,0.90
2022-12-26T15:40:16.192Z,0.90
2022-12-26T15:43:25.611Z,0.80
2022-12-26T15:46:31.257Z,0.80
2022-12-26T15:49:39.536Z,0.80
2022-12-26T15:53:21.291Z,0.80
2022-12-26T15:56:24.797Z,0.80
2022-12-26T16:00:10.028Z,0.80
2022-12-26T16:03:22.436Z,0.80
2022-12-26T16:06:52.998Z,0.80
2022-12-26T16:09:53.881Z,0.80
2022-12-26T16:12:40.240Z,0.80
2022-12-26T16:15:26.928Z,0.80
2022-12-26T16:18:31.399Z,0.80
2022-12-26T16:21:19.307Z,0.80
2022-12-26T16:24:10.122Z,0.90
2022-12-26T16:27:02.660Z,0.90
2022-12-26T16:30:18.434Z,0.90
2022-12-26T16:33:05.656Z,0.90
2022-12-26T16:35:56.191Z,0.90
2022-12-26T16:38:45.299Z,0.80
2022-12-26T16:41:32.799Z,0.80
2022-12-26T16:44:39.841Z,0.80
2022-12-26T16:47:25.460Z,0.80
2022-12-26T16:50:30.367Z,0.70
2022-12-26T16:53:23.160Z,0.70
2022-12-26T16:56:39.105Z,0.70
2022-12-26T16:59:36.588Z,0.70
2022-12-26T17:02:32.461Z,0.70
2022-12-26T17:05:32.881Z,0.70
2022-12-26T17:08:18.695Z,0.60
2022-12-26T17:11:04.134Z,0.60
2022-12-26T17:13:54.186Z,0.70
2022-12-26T17:16:39.568Z,0.60
2022-12-26T17:19:33.820Z,0.60
2022-12-26T17:22:35.460Z,0.60
2022-12-26T17:25:33.306Z,0.60
2022-12-26T17:28:19.041Z,0.60
2022-12-26T17:31:42.681Z,0.50
2022-12-26T17:34:28.410Z,0.60
2022-12-26T17:37:24.358Z,0.50
2022-12-26T17:40:16.273Z,0.50
2022-12-26T17:43:20.704Z,0.50
2022-12-26T17:46:10.994Z,0.50
2022-12-26T17:48:57.376Z,0.50
2022-12-26T17:51:46.259Z,0.50
2022-12-26T17:54:36.972Z,0.50
2022-12-26T17:57:27.519Z,0.50
2022-12-26T18:00:24.317Z,0.60
2022-12-26T18:03:13.042Z,0.60
2022-12-26T18:05:59.123Z,0.60
2022-12-26T18:08:45.257Z,0.60
2022-12-26T18:11:30.965Z,0.60
2022-12-26T18:14:16.984Z,0.60
2022-12-26T18:17:03.420Z,0.60
2022-12-26T18:19:49.566Z,0.60
2022-12-26T18:22:36.359Z,0.60
2022-12-26T18:25:25.688Z,0.60
2022-12-26T18:28:15.691Z,0.60
2022-12-26T18:31:01.355Z,0.70
2022-12-26T18:33:47.008Z,0.70
2022-12-26T18:36:38.440Z,0.70
2022-12-26T18:39:24.031Z,0.70
2022-12-26T18:42:18.730Z,0.70
2022-12-26T18:45:05.116Z,0.70
2022-12-26T18:47:50.937Z,0.70
2022-12-26T18:50:36.859Z,0.70
2022-12-26T18:53:22.463Z,0.70
2022-12-26T18:56:14.206Z,0.70
2022-12-26T18:58:59.885Z,0.70
2022-12-26T19:01:45.654Z,0.70
2022-12-26T19:04:31.595Z,0.70
2022-12-26T19:07:19.907Z,0.70
2022-12-26T19:10:06.804Z,0.80
2022-12-26T19:12:53.429Z,0.70
2022-12-26T19:15:39.409Z,0.70
2022-12-26T19:18:25.153Z,0.80
2022-12-26T19:21:14.680Z,0.80
2022-12-26T19:24:00.447Z,0.70
2022-12-26T19:26:46.320Z,0.70
2022-12-26T19:29:32.452Z,0.70
2022-12-26T19:32:18.061Z,0.70
2022-12-26T19:35:05.301Z,0.70
2022-12-26T19:37:50.832Z,0.70
2022-12-26T19:40:36.360Z,0.70
2022-12-26T19:43:22.091Z,0.80
2022-12-26T19:46:12.232Z,0.80
2022-12-26T19:48:58.089Z,0.80
2022-12-26T19:51:43.639Z,0.80
2022-12-26T19:54:29.110Z,0.80
2022-12-26T19:57:14.876Z,0.80
2022-12-26T20:00:00.622Z,0.80
2022-12-26T20:02:46.003Z,0.90
2022-12-26T20:05:32.032Z,0.80
2022-12-26T20:08:17.456Z,0.90
2022-12-26T20:11:16.590Z,0.90
2022-12-26T20:14:06.733Z,0.90
2022-12-26T20:17:06.775Z,0.90
2022-12-26T20:19:53.088Z,0.90
2022-12-26T20:22:38.659Z,0.90
2022-12-26T20:25:24.237Z,0.90
2022-12-26T20:28:10.233Z,1.00
2022-12-26T20:31:13.233Z,1.00
2022-12-26T20:34:00.015Z,1.00
2022-12-26T20:36:45.554Z,1.00
2022-12-26T20:39:31.296Z,1.00
2022-12-26T20:42:17.103Z,1.00
2022-12-26T20:45:03.073Z,1.00
2022-12-26T20:47:49.276Z,1.00
2022-12-26T20:50:35.174Z,1.00
2022-12-26T20:53:20.649Z,1.00
2022-12-26T20:56:07.596Z,1.00
2022-12-26T20:58:53.452Z,1.00
2022-12-26T21:01:39.454Z,1.00
2022-12-26T21:04:25.371Z,1.00
2022-12-26T21:07:11.016Z,1.00
2022-12-26T21:09:56.612Z,1.00
2022-12-26T21:12:42.691Z,1.00
2022-12-26T21:15:28.965Z,1.00
2022-12-26T21:18:14.633Z,1.00
2022-12-26T21:21:17.746Z,1.10
2022-12-26T21:24:17.870Z,1.10
2022-12-26T21:27:03.914Z,1.10
2022-12-26T21:29:50.017Z,1.10
2022-12-26T21:32:35.506Z,1.10
2022-12-26T21:35:21.062Z,1.10
2022-12-26T21:38:06.676Z,1.10
2022-12-26T21:40:52.053Z,1.20
2022-12-26T21:43:38.320Z,1.10
2022-12-26T21:46:31.311Z,1.10
2022-12-26T21:52:20.886Z,1.10
2022-12-26T21:55:07.380Z,1.10
2022-12-26T21:57:59.598Z,1.10
2022-12-26T22:00:45.279Z,1.10
2022-12-26T22:03:31.144Z,1.10
2022-12-26T22:06:16.736Z,1.10
2022-12-26T22:09:03.834Z,1.10
2022-12-26T22:11:49.243Z,1.10
2022-12-26T22:14:34.708Z,1.10
2022-12-26T22:17:20.158Z,1.10
2022-12-26T22:20:07.246Z,1.10
2022-12-26T22:22:52.851Z,1.10
2022-12-26T22:25:38.430Z,1.10
2022-12-26T22:28:24.778Z,1.10
2022-12-26T22:31:32.507Z,1.10
2022-12-26T22:34:18.466Z,1.10
2022-12-26T22:37:03.817Z,1.10
2022-12-26T22:39:49.291Z,1.10
2022-12-26T22:42:34.718Z,1.10
2022-12-26T22:45:20.216Z,1.10
2022-12-26T22:48:05.848Z,1.10
2022-12-26T22:50:54.915Z,1.10
2022-12-26T22:53:40.658Z,1.00
2022-12-26T22:56:27.715Z,1.10
2022-12-26T22:59:22.567Z,1.10
2022-12-26T23:02:19.807Z,1.00
2022-12-26T23:05:08.931Z,1.10
2022-12-26T23:07:55.083Z,1.10
2022-12-26T23:10:42.344Z,1.10
2022-12-26T23:13:28.435Z,1.10
2022-12-26T23:16:28.892Z,1.10
2022-12-26T23:19:27.850Z,1.10
2022-12-26T23:22:13.710Z,1.10
2022-12-26T23:24:59.297Z,1.10
2022-12-26T23:27:44.972Z,1.10
2022-12-26T23:30:30.461Z,1.10
2022-12-26T23:33:16.759Z,1.10
2022-12-26T23:36:02.396Z,1.10
2022-12-26T23:38:48.376Z,1.10
2022-12-26T23:41:33.800Z,1.10
2022-12-26T23:44:19.520Z,1.10
2022-12-26T23:47:05.202Z,1.10
2022-12-26T23:49:50.722Z,1.20
2022-12-26T23:52:36.756Z,1.10
2022-12-26T23:55:22.537Z,1.20
2022-12-26T23:58:08.907Z,1.20
